KRLD

Richland Airport

Richland, Washington, USA
METAR KRLD 170355Z AUTO 00000KT 10SM CLR 08/05 A3033 RMK AO2 T00810046
Observed Flight Rules
Oct-17 @ 03:55 UTC (an hour ago) Visual Flight Rules
Visibility Clouds
10 miles
  • Clear skies
Temperatures Readings
Current 8°C / 46°F
Dewpoint 5°C / 41°F
Humidity 82%
Altimeter 30.33" Hg
Pressure 1027 hPa
Elevation 120
METAR KRLD 170355Z AUTO 00000KT 10SM CLR 08/05 A3033 RMK AO2 T00810046
Observed Flight Rules
Oct-17 @ 03:55 UTC
(an hour ago)
VFR
Clouds
  • Clear skies
Temperature Dewpoint
8°C / 46°F 5°C / 41°F
Humidity Altimeter Pressure
82% 30.33" Hg 1027 hPa